sensor_id;sensor_type;location;lat;lon;timestamp;temperature;humidity
2825;DHT22;1420;51.324;12.344;2023-07-13T00:00:11;21.80;45.00
2825;DHT22;1420;51.324;12.344;2023-07-13T00:02:38;21.90;44.90
2825;DHT22;1420;51.324;12.344;2023-07-13T00:05:06;21.80;45.10
2825;DHT22;1420;51.324;12.344;2023-07-13T00:07:33;21.60;45.30
2825;DHT22;1420;51.324;12.344;2023-07-13T00:10:00;21.60;46.10
2825;DHT22;1420;51.324;12.344;2023-07-13T00:12:30;21.60;46.10
2825;DHT22;1420;51.324;12.344;2023-07-13T00:14:57;21.60;46.40
2825;DHT22;1420;51.324;12.344;2023-07-13T00:17:24;21.50;46.30
2825;DHT22;1420;51.324;12.344;2023-07-13T00:19:51;21.60;46.20
2825;DHT22;1420;51.324;12.344;2023-07-13T00:22:18;21.60;45.90
2825;DHT22;1420;51.324;12.344;2023-07-13T00:24:45;21.70;45.50
2825;DHT22;1420;51.324;12.344;2023-07-13T00:27:12;21.70;45.30
2825;DHT22;1420;51.324;12.344;2023-07-13T00:29:39;21.60;45.60
2825;DHT22;1420;51.324;12.344;2023-07-13T00:32:08;21.60;45.70
2825;DHT22;1420;51.324;12.344;2023-07-13T00:34:34;21.50;46.00
2825;DHT22;1420;51.324;12.344;2023-07-13T00:37:01;21.50;46.30
2825;DHT22;1420;51.324;12.344;2023-07-13T00:39:29;21.60;46.40
2825;DHT22;1420;51.324;12.344;2023-07-13T00:41:57;21.50;46.20
2825;DHT22;1420;51.324;12.344;2023-07-13T00:44:24;21.60;46.40
2825;DHT22;1420;51.324;12.344;2023-07-13T00:46:51;21.70;45.70
2825;DHT22;1420;51.324;12.344;2023-07-13T00:49:20;21.90;45.60
2825;DHT22;1420;51.324;12.344;2023-07-13T00:51:49;21.70;45.60
2825;DHT22;1420;51.324;12.344;2023-07-13T00:54:17;21.70;45.60
2825;DHT22;1420;51.324;12.344;2023-07-13T00:56:43;21.80;46.00
2825;DHT22;1420;51.324;12.344;2023-07-13T00:59:10;21.90;46.30
2825;DHT22;1420;51.324;12.344;2023-07-13T01:01:37;22.10;45.50
2825;DHT22;1420;51.324;12.344;2023-07-13T01:04:06;21.80;45.70
2825;DHT22;1420;51.324;12.344;2023-07-13T01:06:34;21.70;45.60
2825;DHT22;1420;51.324;12.344;2023-07-13T01:09:00;21.60;46.60
2825;DHT22;1420;51.324;12.344;2023-07-13T01:11:27;21.50;46.40
2825;DHT22;1420;51.324;12.344;2023-07-13T01:13:55;21.30;46.80
2825;DHT22;1420;51.324;12.344;2023-07-13T01:16:27;21.30;47.10
2825;DHT22;1420;51.324;12.344;2023-07-13T01:18:51;21.20;46.90
2825;DHT22;1420;51.324;12.344;2023-07-13T01:21:18;21.30;47.20
2825;DHT22;1420;51.324;12.344;2023-07-13T01:23:46;21.00;47.90
2825;DHT22;1420;51.324;12.344;2023-07-13T01:26:14;21.00;47.90
2825;DHT22;1420;51.324;12.344;2023-07-13T01:28:41;20.70;48.90
2825;DHT22;1420;51.324;12.344;2023-07-13T01:31:08;20.80;49.40
2825;DHT22;1420;51.324;12.344;2023-07-13T01:33:37;20.70;49.70
2825;DHT22;1420;51.324;12.344;2023-07-13T01:36:03;20.60;49.50
2825;DHT22;1420;51.324;12.344;2023-07-13T01:38:30;20.50;50.50
2825;DHT22;1420;51.324;12.344;2023-07-13T01:40:58;20.50;50.80
2825;DHT22;1420;51.324;12.344;2023-07-13T01:43:26;20.30;51.50
2825;DHT22;1420;51.324;12.344;2023-07-13T01:45:53;20.30;52.40
2825;DHT22;1420;51.324;12.344;2023-07-13T01:48:20;20.30;51.60
2825;DHT22;1420;51.324;12.344;2023-07-13T01:50:47;20.30;51.70
2825;DHT22;1420;51.324;12.344;2023-07-13T01:53:15;20.30;52.00
2825;DHT22;1420;51.324;12.344;2023-07-13T01:55:42;20.60;51.50
2825;DHT22;1420;51.324;12.344;2023-07-13T01:58:09;20.50;51.60
2825;DHT22;1420;51.324;12.344;2023-07-13T02:00:37;20.50;51.90
2825;DHT22;1420;51.324;12.344;2023-07-13T02:03:05;20.50;51.90
2825;DHT22;1420;51.324;12.344;2023-07-13T02:05:32;20.40;51.80
2825;DHT22;1420;51.324;12.344;2023-07-13T02:07:59;20.40;51.90
2825;DHT22;1420;51.324;12.344;2023-07-13T02:10:27;20.40;52.30
2825;DHT22;1420;51.324;12.344;2023-07-13T02:12:55;20.40;52.20
2825;DHT22;1420;51.324;12.344;2023-07-13T02:15:22;20.30;52.80
2825;DHT22;1420;51.324;12.344;2023-07-13T02:17:49;20.40;52.60
2825;DHT22;1420;51.324;12.344;2023-07-13T02:20:16;20.30;53.10
2825;DHT22;1420;51.324;12.344;2023-07-13T02:22:44;20.20;53.50
2825;DHT22;1420;51.324;12.344;2023-07-13T02:25:12;20.20;53.80
2825;DHT22;1420;51.324;12.344;2023-07-13T02:27:39;20.10;53.70
2825;DHT22;1420;51.324;12.344;2023-07-13T02:30:07;20.40;53.70
2825;DHT22;1420;51.324;12.344;2023-07-13T02:32:34;20.60;53.70
2825;DHT22;1420;51.324;12.344;2023-07-13T02:35:02;20.30;54.40
2825;DHT22;1420;51.324;12.344;2023-07-13T02:37:29;20.40;54.70
2825;DHT22;1420;51.324;12.344;2023-07-13T02:39:56;20.20;55.50
2825;DHT22;1420;51.324;12.344;2023-07-13T02:42:23;20.00;56.30
2825;DHT22;1420;51.324;12.344;2023-07-13T02:44:51;20.20;56.10
2825;DHT22;1420;51.324;12.344;2023-07-13T02:47:18;19.90;56.90
2825;DHT22;1420;51.324;12.344;2023-07-13T02:49:45;19.60;57.70
2825;DHT22;1420;51.324;12.344;2023-07-13T02:52:12;19.50;58.30
2825;DHT22;1420;51.324;12.344;2023-07-13T02:54:39;19.30;59.00
2825;DHT22;1420;51.324;12.344;2023-07-13T02:57:07;19.20;59.50
2825;DHT22;1420;51.324;12.344;2023-07-13T02:59:34;19.10;60.20
2825;DHT22;1420;51.324;12.344;2023-07-13T03:02:02;19.10;62.50
2825;DHT22;1420;51.324;12.344;2023-07-13T03:04:28;19.00;62.10
2825;DHT22;1420;51.324;12.344;2023-07-13T03:06:55;19.00;63.00
2825;DHT22;1420;51.324;12.344;2023-07-13T03:09:23;18.80;65.00
2825;DHT22;1420;51.324;12.344;2023-07-13T03:11:52;18.70;66.30
2825;DHT22;1420;51.324;12.344;2023-07-13T03:14:17;18.60;67.70
2825;DHT22;1420;51.324;12.344;2023-07-13T03:16:44;18.60;68.50
2825;DHT22;1420;51.324;12.344;2023-07-13T03:19:11;18.50;69.60
2825;DHT22;1420;51.324;12.344;2023-07-13T03:21:39;18.50;70.90
2825;DHT22;1420;51.324;12.344;2023-07-13T03:24:06;18.50;71.80
2825;DHT22;1420;51.324;12.344;2023-07-13T03:26:34;18.50;72.90
2825;DHT22;1420;51.324;12.344;2023-07-13T03:29:02;18.60;73.40
2825;DHT22;1420;51.324;12.344;2023-07-13T03:31:32;18.60;73.80
2825;DHT22;1420;51.324;12.344;2023-07-13T03:33:58;18.60;74.20
2825;DHT22;1420;51.324;12.344;2023-07-13T03:36:27;18.50;75.30
2825;DHT22;1420;51.324;12.344;2023-07-13T03:38:55;18.40;76.30
2825;DHT22;1420;51.324;12.344;2023-07-13T03:41:22;18.30;78.40
2825;DHT22;1420;51.324;12.344;2023-07-13T03:43:50;18.20;80.00
2825;DHT22;1420;51.324;12.344;2023-07-13T03:46:17;18.20;79.70
2825;DHT22;1420;51.324;12.344;2023-07-13T03:48:45;18.40;79.50
2825;DHT22;1420;51.324;12.344;2023-07-13T03:51:12;18.40;80.00
2825;DHT22;1420;51.324;12.344;2023-07-13T03:53:39;18.30;80.80
2825;DHT22;1420;51.324;12.344;2023-07-13T03:56:06;18.20;82.20
2825;DHT22;1420;51.324;12.344;2023-07-13T03:58:34;18.20;83.90
2825;DHT22;1420;51.324;12.344;2023-07-13T04:01:01;18.20;84.40
2825;DHT22;1420;51.324;12.344;2023-07-13T04:03:28;18.30;85.80
2825;DHT22;1420;51.324;12.344;2023-07-13T04:05:55;18.50;85.40
2825;DHT22;1420;51.324;12.344;2023-07-13T04:08:22;18.40;85.80
2825;DHT22;1420;51.324;12.344;2023-07-13T04:10:49;18.30;87.40
2825;DHT22;1420;51.324;12.344;2023-07-13T04:13:16;18.20;88.30
2825;DHT22;1420;51.324;12.344;2023-07-13T04:15:44;18.20;90.20
2825;DHT22;1420;51.324;12.344;2023-07-13T04:18:11;18.30;90.40
2825;DHT22;1420;51.324;12.344;2023-07-13T04:20:38;18.30;90.40
2825;DHT22;1420;51.324;12.344;2023-07-13T04:23:05;18.30;90.40
2825;DHT22;1420;51.324;12.344;2023-07-13T04:25:32;18.30;91.20
2825;DHT22;1420;51.324;12.344;2023-07-13T04:28:00;18.30;91.30
2825;DHT22;1420;51.324;12.344;2023-07-13T04:30:27;18.40;91.10
2825;DHT22;1420;51.324;12.344;2023-07-13T04:32:54;18.50;91.00
2825;DHT22;1420;51.324;12.344;2023-07-13T04:35:22;18.50;91.10
2825;DHT22;1420;51.324;12.344;2023-07-13T04:37:50;18.50;91.00
2825;DHT22;1420;51.324;12.344;2023-07-13T04:40:18;18.60;90.90
2825;DHT22;1420;51.324;12.344;2023-07-13T04:42:46;18.80;90.40
2825;DHT22;1420;51.324;12.344;2023-07-13T04:45:14;18.70;90.40
2825;DHT22;1420;51.324;12.344;2023-07-13T04:47:41;18.70;90.70
2825;DHT22;1420;51.324;12.344;2023-07-13T04:50:09;18.50;91.60
2825;DHT22;1420;51.324;12.344;2023-07-13T04:52:36;18.40;91.50
2825;DHT22;1420;51.324;12.344;2023-07-13T04:55:04;18.50;92.00
2825;DHT22;1420;51.324;12.344;2023-07-13T04:57:37;18.60;92.00
2825;DHT22;1420;51.324;12.344;2023-07-13T05:00:06;18.60;92.30
2825;DHT22;1420;51.324;12.344;2023-07-13T05:02:34;18.60;92.40
2825;DHT22;1420;51.324;12.344;2023-07-13T05:05:01;18.70;92.10
2825;DHT22;1420;51.324;12.344;2023-07-13T05:07:29;18.70;91.90
2825;DHT22;1420;51.324;12.344;2023-07-13T05:09:56;18.80;91.80
2825;DHT22;1420;51.324;12.344;2023-07-13T05:12:23;18.80;91.60
2825;DHT22;1420;51.324;12.344;2023-07-13T05:14:50;19.00;91.70
2825;DHT22;1420;51.324;12.344;2023-07-13T05:17:18;19.00;91.40
2825;DHT22;1420;51.324;12.344;2023-07-13T05:19:45;19.10;91.20
2825;DHT22;1420;51.324;12.344;2023-07-13T05:22:12;19.10;91.00
2825;DHT22;1420;51.324;12.344;2023-07-13T05:24:39;19.20;90.80
2825;DHT22;1420;51.324;12.344;2023-07-13T05:27:07;19.30;90.30
2825;DHT22;1420;51.324;12.344;2023-07-13T05:29:34;19.30;90.60
2825;DHT22;1420;51.324;12.344;2023-07-13T05:32:01;19.50;90.40
2825;DHT22;1420;51.324;12.344;2023-07-13T05:34:29;19.90;86.90
2825;DHT22;1420;51.324;12.344;2023-07-13T05:36:57;19.80;87.30
2825;DHT22;1420;51.324;12.344;2023-07-13T05:39:25;20.00;86.40
2825;DHT22;1420;51.324;12.344;2023-07-13T05:41:53;20.10;85.30
2825;DHT22;1420;51.324;12.344;2023-07-13T05:44:21;20.40;84.40
2825;DHT22;1420;51.324;12.344;2023-07-13T05:46:49;20.60;82.90
2825;DHT22;1420;51.324;12.344;2023-07-13T05:49:17;20.70;79.80
2825;DHT22;1420;51.324;12.344;2023-07-13T05:51:44;20.60;79.60
2825;DHT22;1420;51.324;12.344;2023-07-13T05:54:11;20.70;79.00
2825;DHT22;1420;51.324;12.344;2023-07-13T05:56:38;21.20;77.40
2825;DHT22;1420;51.324;12.344;2023-07-13T05:59:06;21.40;74.80
2825;DHT22;1420;51.324;12.344;2023-07-13T06:01:33;22.30;71.10
2825;DHT22;1420;51.324;12.344;2023-07-13T06:04:00;22.80;66.50
2825;DHT22;1420;51.324;12.344;2023-07-13T06:06:27;22.80;64.40
2825;DHT22;1420;51.324;12.344;2023-07-13T06:08:55;22.90;63.80
2825;DHT22;1420;51.324;12.344;2023-07-13T06:11:23;22.90;63.70
2825;DHT22;1420;51.324;12.344;2023-07-13T06:13:50;23.30;61.50
2825;DHT22;1420;51.324;12.344;2023-07-13T06:16:17;24.00;59.10
2825;DHT22;1420;51.324;12.344;2023-07-13T06:18:45;25.10;54.70
2825;DHT22;1420;51.324;12.344;2023-07-13T06:21:14;25.20;53.00
2825;DHT22;1420;51.324;12.344;2023-07-13T06:23:40;25.20;52.90
2825;DHT22;1420;51.324;12.344;2023-07-13T06:26:07;25.70;52.40
2825;DHT22;1420;51.324;12.344;2023-07-13T06:28:35;25.80;51.30
2825;DHT22;1420;51.324;12.344;2023-07-13T06:31:04;26.30;50.00
2825;DHT22;1420;51.324;12.344;2023-07-13T06:33:30;26.70;49.20
2825;DHT22;1420;51.324;12.344;2023-07-13T06:35:58;26.60;49.10
2825;DHT22;1420;51.324;12.344;2023-07-13T06:38:25;26.70;48.40
2825;DHT22;1420;51.324;12.344;2023-07-13T06:40:52;26.80;47.40
2825;DHT22;1420;51.324;12.344;2023-07-13T06:43:20;26.70;47.40
2825;DHT22;1420;51.324;12.344;2023-07-13T06:45:48;26.70;48.00
2825;DHT22;1420;51.324;12.344;2023-07-13T06:48:15;26.80;47.00
2825;DHT22;1420;51.324;12.344;2023-07-13T06:50:42;27.00;46.40
2825;DHT22;1420;51.324;12.344;2023-07-13T06:53:10;27.70;43.10
2825;DHT22;1420;51.324;12.344;2023-07-13T06:55:37;27.60;43.00
2825;DHT22;1420;51.324;12.344;2023-07-13T06:58:04;27.60;42.20
2825;DHT22;1420;51.324;12.344;2023-07-13T07:00:31;27.90;42.40
2825;DHT22;1420;51.324;12.344;2023-07-13T07:02:59;27.90;42.00
2825;DHT22;1420;51.324;12.344;2023-07-13T07:05:27;27.30;42.70
2825;DHT22;1420;51.324;12.344;2023-07-13T07:07:55;27.20;42.70
2825;DHT22;1420;51.324;12.344;2023-07-13T07:10:22;27.20;42.60
2825;DHT22;1420;51.324;12.344;2023-07-13T07:12:49;28.00;40.50
2825;DHT22;1420;51.324;12.344;2023-07-13T07:15:17;26.90;41.60
2825;DHT22;1420;51.324;12.344;2023-07-13T07:17:44;26.80;41.50
2825;DHT22;1420;51.324;12.344;2023-07-13T07:20:11;26.50;43.50
2825;DHT22;1420;51.324;12.344;2023-07-13T07:22:38;26.50;43.60
2825;DHT22;1420;51.324;12.344;2023-07-13T07:25:07;26.40;43.10
2825;DHT22;1420;51.324;12.344;2023-07-13T07:27:34;26.30;43.00
2825;DHT22;1420;51.324;12.344;2023-07-13T07:30:01;26.40;43.20
2825;DHT22;1420;51.324;12.344;2023-07-13T07:32:30;26.10;43.20
2825;DHT22;1420;51.324;12.344;2023-07-13T07:34:57;25.60;43.00
2825;DHT22;1420;51.324;12.344;2023-07-13T07:37:24;26.50;41.60
2825;DHT22;1420;51.324;12.344;2023-07-13T07:39:52;27.00;41.30
2825;DHT22;1420;51.324;12.344;2023-07-13T07:42:20;28.30;36.70
2825;DHT22;1420;51.324;12.344;2023-07-13T07:44:47;28.30;36.60
2825;DHT22;1420;51.324;12.344;2023-07-13T07:47:14;28.40;36.30
2825;DHT22;1420;51.324;12.344;2023-07-13T07:49:41;27.60;36.10
2825;DHT22;1420;51.324;12.344;2023-07-13T07:52:09;26.80;38.70
2825;DHT22;1420;51.324;12.344;2023-07-13T07:54:36;26.00;39.00
2825;DHT22;1420;51.324;12.344;2023-07-13T07:57:04;25.30;39.60
2825;DHT22;1420;51.324;12.344;2023-07-13T07:59:31;25.20;39.50
2825;DHT22;1420;51.324;12.344;2023-07-13T08:01:59;25.30;39.70
2825;DHT22;1420;51.324;12.344;2023-07-13T08:04:27;25.00;40.10
2825;DHT22;1420;51.324;12.344;2023-07-13T08:06:54;25.00;40.10
2825;DHT22;1420;51.324;12.344;2023-07-13T08:09:22;26.80;38.90
2825;DHT22;1420;51.324;12.344;2023-07-13T08:11:50;26.70;38.10
2825;DHT22;1420;51.324;12.344;2023-07-13T08:14:17;27.30;37.10
2825;DHT22;1420;51.324;12.344;2023-07-13T08:16:45;27.80;36.00
2825;DHT22;1420;51.324;12.344;2023-07-13T08:19:12;28.10;36.70
2825;DHT22;1420;51.324;12.344;2023-07-13T08:21:39;28.70;34.30
2825;DHT22;1420;51.324;12.344;2023-07-13T08:24:06;28.90;35.00
2825;DHT22;1420;51.324;12.344;2023-07-13T08:26:34;29.30;34.40
2825;DHT22;1420;51.324;12.344;2023-07-13T08:29:01;29.20;34.00
2825;DHT22;1420;51.324;12.344;2023-07-13T08:31:28;28.70;33.50
2825;DHT22;1420;51.324;12.344;2023-07-13T08:33:55;29.40;33.70
2825;DHT22;1420;51.324;12.344;2023-07-13T08:36:22;29.00;34.50
2825;DHT22;1420;51.324;12.344;2023-07-13T08:38:50;28.40;35.20
2825;DHT22;1420;51.324;12.344;2023-07-13T08:41:17;28.00;35.90
2825;DHT22;1420;51.324;12.344;2023-07-13T08:43:46;28.20;35.10
2825;DHT22;1420;51.324;12.344;2023-07-13T08:46:13;27.80;35.50
2825;DHT22;1420;51.324;12.344;2023-07-13T08:48:44;27.60;36.00
2825;DHT22;1420;51.324;12.344;2023-07-13T08:51:23;26.80;35.50
2825;DHT22;1420;51.324;12.344;2023-07-13T08:53:47;26.70;36.30
2825;DHT22;1420;51.324;12.344;2023-07-13T08:56:22;26.90;36.10
2825;DHT22;1420;51.324;12.344;2023-07-13T08:58:53;27.10;36.00
2825;DHT22;1420;51.324;12.344;2023-07-13T09:04:06;27.70;36.20
2825;DHT22;1420;51.324;12.344;2023-07-13T09:06:34;28.40;33.80
2825;DHT22;1420;51.324;12.344;2023-07-13T09:09:01;29.00;33.00
2825;DHT22;1420;51.324;12.344;2023-07-13T09:11:35;28.60;34.10
2825;DHT22;1420;51.324;12.344;2023-07-13T09:14:09;27.60;34.50
2825;DHT22;1420;51.324;12.344;2023-07-13T09:16:31;27.70;34.00
2825;DHT22;1420;51.324;12.344;2023-07-13T09:18:59;27.40;34.50
2825;DHT22;1420;51.324;12.344;2023-07-13T09:21:30;27.40;36.00
2825;DHT22;1420;51.324;12.344;2023-07-13T09:23:58;27.80;34.80
2825;DHT22;1420;51.324;12.344;2023-07-13T09:26:24;28.20;34.00
2825;DHT22;1420;51.324;12.344;2023-07-13T09:28:54;28.30;33.40
2825;DHT22;1420;51.324;12.344;2023-07-13T09:31:20;28.60;31.50
2825;DHT22;1420;51.324;12.344;2023-07-13T09:33:46;28.70;31.20
2825;DHT22;1420;51.324;12.344;2023-07-13T09:36:20;28.30;31.50
2825;DHT22;1420;51.324;12.344;2023-07-13T09:38:46;28.20;31.40
2825;DHT22;1420;51.324;12.344;2023-07-13T09:41:57;28.30;31.50
2825;DHT22;1420;51.324;12.344;2023-07-13T09:44:13;28.50;31.20
2825;DHT22;1420;51.324;12.344;2023-07-13T09:46:42;28.00;32.80
2825;DHT22;1420;51.324;12.344;2023-07-13T09:49:08;27.10;33.70
2825;DHT22;1420;51.324;12.344;2023-07-13T09:51:35;26.70;34.70
2825;DHT22;1420;51.324;12.344;2023-07-13T09:54:02;26.70;34.80
2825;DHT22;1420;51.324;12.344;2023-07-13T09:56:29;26.70;34.90
2825;DHT22;1420;51.324;12.344;2023-07-13T09:58:56;26.80;35.00
2825;DHT22;1420;51.324;12.344;2023-07-13T10:01:31;26.40;35.30
2825;DHT22;1420;51.324;12.344;2023-07-13T10:03:57;26.60;36.10
2825;DHT22;1420;51.324;12.344;2023-07-13T10:06:25;26.60;36.00
2825;DHT22;1420;51.324;12.344;2023-07-13T10:08:54;26.70;35.50
2825;DHT22;1420;51.324;12.344;2023-07-13T10:11:20;26.90;34.80
2825;DHT22;1420;51.324;12.344;2023-07-13T10:13:55;28.20;33.80
2825;DHT22;1420;51.324;12.344;2023-07-13T10:16:25;28.20;33.80
2825;DHT22;1420;51.324;12.344;2023-07-13T10:18:54;28.20;33.10
2825;DHT22;1420;51.324;12.344;2023-07-13T10:21:22;28.20;32.30
2825;DHT22;1420;51.324;12.344;2023-07-13T10:23:54;28.30;31.50
2825;DHT22;1420;51.324;12.344;2023-07-13T10:26:22;28.30;31.50
2825;DHT22;1420;51.324;12.344;2023-07-13T10:28:49;28.80;29.10
2825;DHT22;1420;51.324;12.344;2023-07-13T10:31:15;29.10;29.10
2825;DHT22;1420;51.324;12.344;2023-07-13T10:33:43;27.10;34.90
2825;DHT22;1420;51.324;12.344;2023-07-13T10:36:14;27.00;35.50
2825;DHT22;1420;51.324;12.344;2023-07-13T10:38:40;27.20;35.00
2825;DHT22;1420;51.324;12.344;2023-07-13T10:41:09;27.40;34.70
2825;DHT22;1420;51.324;12.344;2023-07-13T10:43:51;27.10;35.10
2825;DHT22;1420;51.324;12.344;2023-07-13T10:46:18;27.30;34.20
2825;DHT22;1420;51.324;12.344;2023-07-13T10:48:46;26.90;34.20
2825;DHT22;1420;51.324;12.344;2023-07-13T10:51:14;26.80;33.90
2825;DHT22;1420;51.324;12.344;2023-07-13T10:53:40;26.80;33.70
2825;DHT22;1420;51.324;12.344;2023-07-13T10:56:28;26.60;33.90
2825;DHT22;1420;51.324;12.344;2023-07-13T10:59:02;26.30;34.10
2825;DHT22;1420;51.324;12.344;2023-07-13T11:01:38;26.40;34.50
2825;DHT22;1420;51.324;12.344;2023-07-13T11:03:59;27.50;33.10
2825;DHT22;1420;51.324;12.344;2023-07-13T11:06:37;27.50;33.10
2825;DHT22;1420;51.324;12.344;2023-07-13T11:11:43;28.00;32.30
2825;DHT22;1420;51.324;12.344;2023-07-13T11:14:28;27.90;30.50
2825;DHT22;1420;51.324;12.344;2023-07-13T11:16:56;28.00;29.30
2825;DHT22;1420;51.324;12.344;2023-07-13T11:19:25;28.30;30.70
2825;DHT22;1420;51.324;12.344;2023-07-13T11:22:13;28.30;30.70
2825;DHT22;1420;51.324;12.344;2023-07-13T11:24:52;28.30;29.90
2825;DHT22;1420;51.324;12.344;2023-07-13T11:27:25;28.10;30.70
2825;DHT22;1420;51.324;12.344;2023-07-13T11:29:48;27.90;29.80
2825;DHT22;1420;51.324;12.344;2023-07-13T11:32:21;27.70;30.10
2825;DHT22;1420;51.324;12.344;2023-07-13T11:34:47;27.80;30.00
2825;DHT22;1420;51.324;12.344;2023-07-13T11:37:15;27.90;30.40
2825;DHT22;1420;51.324;12.344;2023-07-13T11:39:42;28.30;29.90
2825;DHT22;1420;51.324;12.344;2023-07-13T11:42:12;27.50;30.10
2825;DHT22;1420;51.324;12.344;2023-07-13T11:44:42;27.90;29.70
2825;DHT22;1420;51.324;12.344;2023-07-13T11:47:10;27.90;29.70
2825;DHT22;1420;51.324;12.344;2023-07-13T11:49:42;27.80;30.40
2825;DHT22;1420;51.324;12.344;2023-07-13T11:52:11;27.30;28.90
2825;DHT22;1420;51.324;12.344;2023-07-13T11:54:47;27.20;28.90
2825;DHT22;1420;51.324;12.344;2023-07-13T11:57:23;27.40;29.00
2825;DHT22;1420;51.324;12.344;2023-07-13T11:59:46;27.90;28.00
2825;DHT22;1420;51.324;12.344;2023-07-13T12:02:16;28.20;27.50
2825;DHT22;1420;51.324;12.344;2023-07-13T12:04:42;27.80;28.10
2825;DHT22;1420;51.324;12.344;2023-07-13T12:07:18;28.70;27.30
2825;DHT22;1420;51.324;12.344;2023-07-13T12:09:45;28.00;28.10
2825;DHT22;1420;51.324;12.344;2023-07-13T12:12:14;27.90;27.90
2825;DHT22;1420;51.324;12.344;2023-07-13T12:14:40;27.50;27.80
2825;DHT22;1420;51.324;12.344;2023-07-13T12:17:16;27.60;26.90
2825;DHT22;1420;51.324;12.344;2023-07-13T12:19:45;28.00;27.10
2825;DHT22;1420;51.324;12.344;2023-07-13T12:22:14;28.40;26.70
2825;DHT22;1420;51.324;12.344;2023-07-13T12:24:41;29.30;25.80
2825;DHT22;1420;51.324;12.344;2023-07-13T12:27:18;29.20;25.80
2825;DHT22;1420;51.324;12.344;2023-07-13T12:29:48;28.70;26.40
2825;DHT22;1420;51.324;12.344;2023-07-13T12:32:14;28.30;26.10
2825;DHT22;1420;51.324;12.344;2023-07-13T12:34:50;28.00;27.60
2825;DHT22;1420;51.324;12.344;2023-07-13T12:37:08;27.30;26.90
2825;DHT22;1420;51.324;12.344;2023-07-13T12:39:35;27.20;27.00
2825;DHT22;1420;51.324;12.344;2023-07-13T12:42:21;27.10;27.60
2825;DHT22;1420;51.324;12.344;2023-07-13T12:44:50;27.00;27.60
2825;DHT22;1420;51.324;12.344;2023-07-13T12:47:20;26.90;28.10
2825;DHT22;1420;51.324;12.344;2023-07-13T12:49:49;27.50;27.90
2825;DHT22;1420;51.324;12.344;2023-07-13T12:52:17;27.50;27.30
2825;DHT22;1420;51.324;12.344;2023-07-13T12:54:52;27.40;27.40
2825;DHT22;1420;51.324;12.344;2023-07-13T12:57:13;27.80;27.50
2825;DHT22;1420;51.324;12.344;2023-07-13T12:59:37;27.90;26.50
2825;DHT22;1420;51.324;12.344;2023-07-13T13:02:15;28.30;26.30
2825;DHT22;1420;51.324;12.344;2023-07-13T13:04:32;28.20;26.30
2825;DHT22;1420;51.324;12.344;2023-07-13T13:07:01;28.10;26.10
2825;DHT22;1420;51.324;12.344;2023-07-13T13:09:27;28.10;27.80
2825;DHT22;1420;51.324;12.344;2023-07-13T13:11:55;28.10;27.50
2825;DHT22;1420;51.324;12.344;2023-07-13T13:14:23;28.40;27.20
2825;DHT22;1420;51.324;12.344;2023-07-13T13:16:51;28.30;27.40
2825;DHT22;1420;51.324;12.344;2023-07-13T13:19:19;28.30;27.40
2825;DHT22;1420;51.324;12.344;2023-07-13T13:21:45;28.20;27.50
2825;DHT22;1420;51.324;12.344;2023-07-13T13:24:13;28.20;26.60
2825;DHT22;1420;51.324;12.344;2023-07-13T13:26:40;27.70;28.20
2825;DHT22;1420;51.324;12.344;2023-07-13T13:29:19;27.70;28.10
2825;DHT22;1420;51.324;12.344;2023-07-13T13:31:46;28.20;27.10
2825;DHT22;1420;51.324;12.344;2023-07-13T13:34:14;28.00;26.70
2825;DHT22;1420;51.324;12.344;2023-07-13T13:36:40;27.70;27.40
2825;DHT22;1420;51.324;12.344;2023-07-13T13:41:43;27.20;27.70
2825;DHT22;1420;51.324;12.344;2023-07-13T13:44:10;27.50;28.10
2825;DHT22;1420;51.324;12.344;2023-07-13T13:46:37;27.70;27.80
2825;DHT22;1420;51.324;12.344;2023-07-13T13:49:08;27.70;27.50
2825;DHT22;1420;51.324;12.344;2023-07-13T13:51:33;27.30;27.50
2825;DHT22;1420;51.324;12.344;2023-07-13T13:54:01;27.30;27.50
2825;DHT22;1420;51.324;12.344;2023-07-13T13:56:28;27.40;27.60
2825;DHT22;1420;51.324;12.344;2023-07-13T13:58:55;27.20;28.30
2825;DHT22;1420;51.324;12.344;2023-07-13T14:01:22;27.20;28.90
2825;DHT22;1420;51.324;12.344;2023-07-13T14:03:50;27.00;29.30
2825;DHT22;1420;51.324;12.344;2023-07-13T14:06:19;27.20;29.40
2825;DHT22;1420;51.324;12.344;2023-07-13T14:08:44;27.70;28.70
2825;DHT22;1420;51.324;12.344;2023-07-13T14:11:12;27.50;28.00
2825;DHT22;1420;51.324;12.344;2023-07-13T14:13:41;27.20;28.60
2825;DHT22;1420;51.324;12.344;2023-07-13T14:16:11;27.20;28.80
2825;DHT22;1420;51.324;12.344;2023-07-13T14:18:36;27.10;28.80
2825;DHT22;1420;51.324;12.344;2023-07-13T14:21:08;26.90;28.60
2825;DHT22;1420;51.324;12.344;2023-07-13T14:23:31;27.50;29.00
2825;DHT22;1420;51.324;12.344;2023-07-13T14:25:59;27.60;27.80
2825;DHT22;1420;51.324;12.344;2023-07-13T14:28:27;27.60;27.80
2825;DHT22;1420;51.324;12.344;2023-07-13T14:30:54;27.50;28.00
2825;DHT22;1420;51.324;12.344;2023-07-13T14:33:21;27.20;28.30
2825;DHT22;1420;51.324;12.344;2023-07-13T14:35:49;27.30;28.70
2825;DHT22;1420;51.324;12.344;2023-07-13T14:38:18;27.20;28.50
2825;DHT22;1420;51.324;12.344;2023-07-13T14:40:43;27.30;27.70
2825;DHT22;1420;51.324;12.344;2023-07-13T14:43:12;27.40;28.00
2825;DHT22;1420;51.324;12.344;2023-07-13T14:45:40;27.40;27.70
2825;DHT22;1420;51.324;12.344;2023-07-13T14:48:12;27.60;27.80
2825;DHT22;1420;51.324;12.344;2023-07-13T14:50:34;27.60;28.40
2825;DHT22;1420;51.324;12.344;2023-07-13T14:53:01;27.70;27.60
2825;DHT22;1420;51.324;12.344;2023-07-13T14:55:29;27.80;26.50
2825;DHT22;1420;51.324;12.344;2023-07-13T14:57:56;27.80;26.50
2825;DHT22;1420;51.324;12.344;2023-07-13T15:00:24;27.80;27.20
2825;DHT22;1420;51.324;12.344;2023-07-13T15:02:51;27.90;26.90
2825;DHT22;1420;51.324;12.344;2023-07-13T15:05:19;27.60;26.80
2825;DHT22;1420;51.324;12.344;2023-07-13T15:07:45;27.70;27.30
2825;DHT22;1420;51.324;12.344;2023-07-13T15:10:16;27.60;27.40
2825;DHT22;1420;51.324;12.344;2023-07-13T15:12:42;27.30;27.50
2825;DHT22;1420;51.324;12.344;2023-07-13T15:15:10;27.10;27.50
2825;DHT22;1420;51.324;12.344;2023-07-13T15:17:39;27.10;27.00
2825;DHT22;1420;51.324;12.344;2023-07-13T15:20:15;27.00;26.90
2825;DHT22;1420;51.324;12.344;2023-07-13T15:22:40;27.10;27.00
2825;DHT22;1420;51.324;12.344;2023-07-13T15:25:14;27.10;27.00
2825;DHT22;1420;51.324;12.344;2023-07-13T15:27:39;27.20;27.80
2825;DHT22;1420;51.324;12.344;2023-07-13T15:30:06;27.30;27.30
2825;DHT22;1420;51.324;12.344;2023-07-13T15:32:34;27.30;28.00
2825;DHT22;1420;51.324;12.344;2023-07-13T15:35:02;26.70;28.00
2825;DHT22;1420;51.324;12.344;2023-07-13T15:37:30;26.70;28.80
2825;DHT22;1420;51.324;12.344;2023-07-13T15:39:57;26.60;28.80
2825;DHT22;1420;51.324;12.344;2023-07-13T15:42:24;26.70;28.10
2825;DHT22;1420;51.324;12.344;2023-07-13T15:44:51;26.90;28.30
2825;DHT22;1420;51.324;12.344;2023-07-13T15:47:19;26.60;28.60
2825;DHT22;1420;51.324;12.344;2023-07-13T15:49:46;26.60;28.50
2825;DHT22;1420;51.324;12.344;2023-07-13T15:52:17;26.60;28.30
2825;DHT22;1420;51.324;12.344;2023-07-13T15:54:44;26.60;28.50
2825;DHT22;1420;51.324;12.344;2023-07-13T15:57:11;26.60;28.40